Time;durP1;ratioP1;P1;durP2;ratioP2;P2;SDS_P1;SDS_P2;PMS_P1;PMS_P2;Temp;Humidity;BMP_temperature;BMP_pressure;BME280_temperature;BME280_humidity;BME280_pressure;Samples;Min_cycle;Max_cycle;Signal;HPM_P1;HPM_P2
2022/04/09 00:02:23;;;;;;;24.35;4.10;;;5.30;99.90;;;;;;5051925;28;20041;-80
2022/04/09 00:04:49;;;;;;;22.45;3.92;;;5.30;99.90;;;;;;5053507;28;20028;-80
2022/04/09 00:07:15;;;;;;;23.85;3.72;;;5.20;99.90;;;;;;5053446;28;20029;-74
2022/04/09 00:09:41;;;;;;;30.73;4.32;;;5.20;99.90;;;;;;5053521;28;20044;-79
2022/04/09 00:12:08;;;;;;;27.55;3.35;;;5.30;99.90;;;;;;5046797;28;20022;-79
2022/04/09 00:14:34;;;;;;;28.13;5.80;;;5.30;99.90;;;;;;5033654;28;20033;-80
2022/04/09 00:17:00;;;;;;;35.42;3.90;;;5.20;99.90;;;;;;5033360;28;20026;-80
2022/04/09 00:19:26;;;;;;;25.02;3.60;;;5.20;99.90;;;;;;5033505;28;20030;-79
2022/04/09 00:21:52;;;;;;;39.13;4.75;;;5.30;99.90;;;;;;5033391;28;20049;-79
2022/04/09 00:24:19;;;;;;;32.22;4.30;;;5.30;99.90;;;;;;5033622;28;20033;-80
2022/04/09 00:26:44;;;;;;;30.73;4.30;;;5.30;99.90;;;;;;5032969;28;20045;-79
2022/04/09 00:29:10;;;;;;;32.97;4.47;;;5.40;99.90;;;;;;5033374;28;20022;-80
2022/04/09 00:31:36;;;;;;;38.08;4.57;;;5.40;99.90;;;;;;5033292;28;20021;-80
2022/04/09 00:34:02;;;;;;;27.40;3.75;;;5.40;99.90;;;;;;5031827;28;20482;-79
2022/04/09 00:36:27;;;;;;;26.80;3.83;;;5.40;99.90;;;;;;5031914;28;20466;-80
2022/04/09 00:38:53;;;;;;;22.42;4.45;;;5.40;99.90;;;;;;5031857;28;20034;-80
2022/04/09 00:41:21;;;;;;;23.08;4.38;;;5.40;99.90;;;;;;5031690;28;20091;-79
2022/04/09 00:43:46;;;;;;;30.40;4.45;;;5.30;99.90;;;;;;5033112;28;20029;-79
2022/04/09 00:46:14;;;;;;;34.20;4.82;;;5.40;99.90;;;;;;5031733;28;20414;-79
2022/04/09 00:48:42;;;;;;;25.92;4.60;;;5.40;99.90;;;;;;5048992;28;20029;-79
2022/04/09 00:51:08;;;;;;;25.13;4.40;;;5.40;99.90;;;;;;5052895;28;20025;-80
2022/04/09 00:53:36;;;;;;;29.90;3.45;;;5.40;99.90;;;;;;5053162;28;20021;-79
2022/04/09 00:56:13;;;;;;;28.83;4.30;;;5.30;99.90;;;;;;5052938;28;20025;-79
2022/04/09 00:58:46;;;;;;;28.10;5.20;;;5.30;99.90;;;;;;5051673;28;20025;-80
2022/04/09 01:01:12;;;;;;;34.25;5.30;;;5.20;99.90;;;;;;5051577;28;20025;-80
2022/04/09 01:03:39;;;;;;;32.38;3.65;;;5.20;99.90;;;;;;5052488;28;20025;-80
2022/04/09 01:06:09;;;;;;;30.48;3.72;;;5.20;99.90;;;;;;5051366;28;20423;-80
2022/04/09 01:08:35;;;;;;;25.80;4.00;;;5.30;99.90;;;;;;5052713;28;20044;-79
2022/04/09 01:11:01;;;;;;;25.42;3.63;;;5.30;99.90;;;;;;5051543;28;20025;-80
2022/04/09 01:13:28;;;;;;;18.65;2.85;;;5.40;99.90;;;;;;5054840;28;20028;-80
2022/04/09 01:15:54;;;;;;;30.50;3.80;;;5.40;99.90;;;;;;5055500;28;20040;-80
2022/04/09 01:18:20;;;;;;;27.23;4.57;;;5.40;99.90;;;;;;5055180;28;20032;-79
2022/04/09 01:20:58;;;;;;;24.35;4.20;;;5.30;99.90;;;;;;5055596;28;20033;-80
2022/04/09 01:23:25;;;;;;;15.02;3.22;;;5.30;99.90;;;;;;5055391;28;20063;-80
2022/04/09 01:25:51;;;;;;;23.65;3.80;;;5.30;99.90;;;;;;5055277;28;20048;-80
2022/04/09 01:28:16;;;;;;;18.95;4.38;;;5.40;99.90;;;;;;5055248;28;20074;-80
2022/04/09 01:30:44;;;;;;;14.73;3.58;;;5.30;99.90;;;;;;5055412;28;20052;-79
2022/04/09 01:33:19;;;;;;;25.90;5.10;;;5.30;99.90;;;;;;5056116;28;20029;-80
2022/04/09 01:35:46;;;;;;;23.58;4.90;;;5.30;99.90;;;;;;5055263;28;20493;-78
2022/04/09 01:38:13;;;;;;;26.45;3.95;;;5.30;99.90;;;;;;5055268;28;20056;-80
2022/04/09 01:40:39;;;;;;;20.38;3.40;;;5.20;99.90;;;;;;5054957;28;20037;-80
2022/04/09 01:43:06;;;;;;;24.17;3.83;;;5.20;99.90;;;;;;5055080;28;20037;-80
2022/04/09 01:45:34;;;;;;;25.40;4.28;;;5.20;99.90;;;;;;5038518;28;20025;-80
2022/04/09 01:48:04;;;;;;;22.00;4.10;;;5.20;99.90;;;;;;5054688;28;20444;-80
2022/04/09 01:50:32;;;;;;;24.25;3.75;;;5.30;99.90;;;;;;5054874;28;20021;-80
2022/04/09 01:52:58;;;;;;;25.58;5.07;;;5.40;99.90;;;;;;5038287;28;20443;-79
2022/04/09 01:55:24;;;;;;;30.70;4.47;;;5.50;99.90;;;;;;5054973;28;20044;-80
2022/04/09 01:57:50;;;;;;;26.80;4.07;;;5.20;99.90;;;;;;5054745;28;20408;-79
2022/04/09 02:00:19;;;;;;;37.20;6.90;;;5.10;99.90;;;;;;5054738;28;20112;-80
2022/04/09 02:02:49;;;;;;;20.33;3.97;;;4.90;99.90;;;;;;5054255;28;20404;-77
2022/04/09 02:05:18;;;;;;;22.75;4.30;;;4.80;99.90;;;;;;5054547;28;20477;-80
2022/04/09 02:07:47;;;;;;;25.92;4.50;;;4.90;99.90;;;;;;5054526;28;20040;-79
2022/04/09 02:10:15;;;;;;;33.08;5.05;;;4.90;99.90;;;;;;5054621;28;20032;-80
2022/04/09 02:12:43;;;;;;;25.55;4.47;;;5.00;99.90;;;;;;5054664;28;20484;-79
2022/04/09 02:15:12;;;;;;;23.23;5.70;;;5.10;99.90;;;;;;5054550;28;20029;-79
2022/04/09 02:17:39;;;;;;;18.55;3.60;;;5.20;99.90;;;;;;5054081;28;20056;-80
2022/04/09 02:20:07;;;;;;;24.15;3.80;;;5.20;99.90;;;;;;5054562;28;20037;-79
2022/04/09 02:22:38;;;;;;;17.63;3.08;;;5.20;99.90;;;;;;5056064;28;20033;-79
2022/04/09 02:25:06;;;;;;;50.97;7.65;;;5.20;99.90;;;;;;5054295;28;20032;-80
2022/04/09 02:27:34;;;;;;;19.30;2.70;;;5.10;99.90;;;;;;5054126;28;20032;-78
2022/04/09 02:30:03;;;;;;;18.08;3.20;;;5.00;99.90;;;;;;5053725;28;20013;-79
2022/04/09 02:32:30;;;;;;;20.42;3.70;;;4.90;99.90;;;;;;5054400;28;20495;-79
2022/04/09 02:34:57;;;;;;;16.98;3.13;;;4.90;99.90;;;;;;5053900;28;20112;-79
2022/04/09 02:37:25;;;;;;;31.85;5.03;;;4.80;99.90;;;;;;5054176;28;20060;-80
2022/04/09 02:39:50;;;;;;;18.65;3.85;;;4.90;99.90;;;;;;5054328;28;20064;-80
2022/04/09 02:42:18;;;;;;;18.95;3.05;;;4.80;99.90;;;;;;5054027;28;20112;-80
2022/04/09 02:44:45;;;;;;;23.80;3.58;;;4.70;99.90;;;;;;5053727;28;20493;-78
2022/04/09 02:47:11;;;;;;;17.95;2.65;;;4.60;99.90;;;;;;5053742;28;20045;-79
2022/04/09 02:49:38;;;;;;;25.00;3.30;;;4.50;99.90;;;;;;5053756;28;20021;-80
2022/04/09 02:52:05;;;;;;;18.13;3.65;;;4.60;99.90;;;;;;5053887;28;20410;-80
2022/04/09 02:54:31;;;;;;;19.15;3.47;;;4.60;99.90;;;;;;5054010;28;20048;-79
2022/04/09 02:56:57;;;;;;;30.52;5.05;;;4.60;99.90;;;;;;5055034;28;20029;-79
2022/04/09 02:59:29;;;;;;;23.15;4.15;;;4.60;99.90;;;;;;5053285;28;20559;-80
2022/04/09 03:01:55;;;;;;;19.30;3.42;;;4.50;99.90;;;;;;5054822;28;20029;-78
2022/04/09 03:04:22;;;;;;;23.35;3.45;;;4.40;99.90;;;;;;5053679;28;20036;-79
2022/04/09 03:06:48;;;;;;;27.60;3.63;;;4.30;99.90;;;;;;5053729;28;20041;-79
2022/04/09 03:09:14;;;;;;;24.30;4.50;;;4.40;99.90;;;;;;5053533;28;20029;-79
2022/04/09 03:11:39;;;;;;;23.15;3.80;;;4.30;99.90;;;;;;5053454;28;20037;-80
2022/04/09 03:14:05;;;;;;;20.63;3.45;;;4.40;99.90;;;;;;5053090;28;20123;-79
2022/04/09 03:16:32;;;;;;;24.10;4.95;;;4.30;99.90;;;;;;5053343;28;20091;-79
2022/04/09 03:18:59;;;;;;;26.08;4.50;;;4.30;99.90;;;;;;5053410;28;20474;-79
2022/04/09 03:21:26;;;;;;;39.63;4.43;;;4.20;99.90;;;;;;5053173;28;20035;-78
2022/04/09 03:23:52;;;;;;;24.30;4.97;;;4.20;99.90;;;;;;5053247;28;20025;-80
2022/04/09 03:26:19;;;;;;;21.02;3.88;;;4.10;99.90;;;;;;5052898;28;20079;-80
2022/04/09 03:28:52;;;;;;;24.83;4.53;;;4.10;99.90;;;;;;5052857;28;20025;-78
2022/04/09 03:31:18;;;;;;;23.40;4.97;;;4.00;99.90;;;;;;5052891;28;20074;-79
2022/04/09 03:33:45;;;;;;;32.75;4.93;;;4.00;99.90;;;;;;5053017;28;20032;-79
2022/04/09 03:36:17;;;;;;;20.35;4.47;;;3.90;99.90;;;;;;5052606;28;20036;-80
2022/04/09 03:38:43;;;;;;;24.63;4.95;;;3.90;99.90;;;;;;5052920;28;20029;-79
2022/04/09 03:41:09;;;;;;;20.20;5.45;;;3.90;99.90;;;;;;5052686;28;20478;-80
2022/04/09 03:43:58;;;;;;;23.85;4.53;;;3.90;99.90;;;;;;5049966;28;20635;-79
2022/04/09 03:46:26;;;;;;;19.17;5.28;;;4.00;99.90;;;;;;5052742;28;20401;-79
2022/04/09 03:48:52;;;;;;;33.13;4.57;;;4.00;99.90;;;;;;5052690;28;20540;-79
2022/04/09 03:51:19;;;;;;;26.08;4.53;;;3.90;99.90;;;;;;5052517;28;20106;-79
2022/04/09 03:53:44;;;;;;;22.88;4.10;;;3.90;99.90;;;;;;5052719;28;20068;-79
2022/04/09 03:56:11;;;;;;;31.85;5.97;;;3.90;99.90;;;;;;5052329;28;20040;-79
2022/04/09 03:58:43;;;;;;;16.17;2.92;;;3.90;99.90;;;;;;5052356;28;20040;-80
2022/04/09 04:01:11;;;;;;;19.45;3.75;;;3.80;99.90;;;;;;5052465;28;20481;-79
2022/04/09 04:03:38;;;;;;;20.50;4.03;;;3.80;99.90;;;;;;5052347;28;20017;-79
2022/04/09 04:06:05;;;;;;;28.00;4.97;;;3.80;99.90;;;;;;5052219;28;20036;-79
2022/04/09 04:08:31;;;;;;;34.08;6.63;;;3.80;99.90;;;;;;5052282;28;20392;-78
2022/04/09 04:10:58;;;;;;;20.58;4.45;;;3.70;99.90;;;;;;5052357;28;20025;-79
2022/04/09 04:13:30;;;;;;;29.85;5.13;;;3.70;99.90;;;;;;5036248;28;20107;-78
2022/04/09 04:15:59;;;;;;;23.75;4.95;;;3.70;99.90;;;;;;5052073;28;20024;-79
2022/04/09 04:18:25;;;;;;;26.90;5.70;;;3.80;99.90;;;;;;5035811;28;20037;-79
2022/04/09 04:20:55;;;;;;;36.00;7.30;;;3.90;99.90;;;;;;5052063;28;20116;-79
2022/04/09 04:23:23;;;;;;;32.08;5.40;;;3.90;99.90;;;;;;5052235;28;20111;-79
2022/04/09 04:25:50;;;;;;;23.25;5.30;;;3.80;99.90;;;;;;5051991;28;20037;-79
2022/04/09 04:28:16;;;;;;;23.85;5.72;;;3.70;99.90;;;;;;5051752;28;20024;-78
2022/04/09 04:30:42;;;;;;;27.80;5.43;;;3.70;99.90;;;;;;5051865;28;20036;-77
2022/04/09 04:33:09;;;;;;;38.42;6.75;;;3.80;99.90;;;;;;5051921;28;20470;-78
2022/04/09 04:35:52;;;;;;;27.23;6.05;;;3.80;99.90;;;;;;5052216;28;20448;-78
2022/04/09 04:38:19;;;;;;;22.13;5.03;;;3.80;99.90;;;;;;5052145;28;20123;-78
2022/04/09 04:40:46;;;;;;;23.63;5.50;;;3.70;99.90;;;;;;5051495;28;20033;-78
2022/04/09 04:43:11;;;;;;;32.25;5.57;;;3.70;99.90;;;;;;5053027;28;20510;-79
2022/04/09 04:45:39;;;;;;;22.02;5.38;;;3.70;99.90;;;;;;5051561;28;20474;-77
2022/04/09 04:48:09;;;;;;;22.90;4.93;;;3.70;99.90;;;;;;5050986;28;20131;-76
2022/04/09 04:50:37;;;;;;;15.68;5.10;;;3.60;99.90;;;;;;5051664;28;20025;-78
2022/04/09 04:53:05;;;;;;;37.38;8.32;;;3.70;99.90;;;;;;5051668;28;20371;-78
2022/04/09 04:55:36;;;;;;;17.92;5.15;;;3.60;99.90;;;;;;5051345;28;20025;-78
2022/04/09 04:58:02;;;;;;;24.70;5.82;;;3.60;99.90;;;;;;5051411;28;20032;-77
2022/04/09 05:00:36;;;;;;;23.70;5.90;;;3.60;99.90;;;;;;5036361;28;20021;-78
2022/04/09 05:03:07;;;;;;;26.80;6.03;;;3.60;99.90;;;;;;5051393;28;20122;-78
2022/04/09 05:05:39;;;;;;;25.27;5.55;;;3.60;99.90;;;;;;5051564;28;20056;-77
2022/04/09 05:08:06;;;;;;;25.52;6.03;;;3.60;99.90;;;;;;5051281;28;20041;-78
2022/04/09 05:10:32;;;;;;;28.73;5.25;;;3.60;99.90;;;;;;5051334;28;20021;-77
2022/04/09 05:13:01;;;;;;;29.50;6.35;;;3.60;99.90;;;;;;5051405;28;20029;-77
2022/04/09 05:15:29;;;;;;;25.85;5.78;;;3.70;99.90;;;;;;5051568;28;20029;-78
2022/04/09 05:17:55;;;;;;;33.33;6.18;;;3.70;99.90;;;;;;5052708;28;20039;-74
2022/04/09 05:20:22;;;;;;;22.48;5.65;;;3.70;99.90;;;;;;5051202;28;20499;-78
2022/04/09 05:22:50;;;;;;;29.13;5.90;;;3.80;99.90;;;;;;5051344;28;20049;-77
2022/04/09 05:25:21;;;;;;;27.45;6.90;;;3.80;99.90;;;;;;5050834;28;20055;-76
2022/04/09 05:27:50;;;;;;;25.55;5.90;;;3.90;99.90;;;;;;5051386;28;20119;-76
2022/04/09 05:30:24;;;;;;;21.05;5.72;;;3.90;99.90;;;;;;5051439;28;20492;-78
2022/04/09 05:32:52;;;;;;;35.17;5.60;;;3.90;99.90;;;;;;5051309;28;20040;-77
2022/04/09 05:35:17;;;;;;;26.20;6.47;;;3.90;99.90;;;;;;5052510;28;20033;-78
2022/04/09 05:37:50;;;;;;;25.13;6.20;;;3.90;99.90;;;;;;5051200;28;20029;-79
2022/04/09 05:40:19;;;;;;;30.50;5.93;;;3.90;99.90;;;;;;5050838;28;20079;-79
2022/04/09 05:42:46;;;;;;;33.15;5.90;;;3.80;99.90;;;;;;5051043;28;20021;-79
2022/04/09 05:45:14;;;;;;;33.90;7.13;;;3.80;99.90;;;;;;5050961;28;20024;-79
2022/04/09 05:47:46;;;;;;;32.65;6.43;;;3.80;99.90;;;;;;5051011;28;20029;-78
2022/04/09 05:50:17;;;;;;;23.90;6.68;;;3.90;99.90;;;;;;5051102;28;20425;-78
2022/04/09 05:52:44;;;;;;;30.92;5.93;;;3.80;99.90;;;;;;5051043;28;20082;-79
2022/04/09 05:55:12;;;;;;;30.92;7.00;;;3.80;99.90;;;;;;5050754;28;20396;-78
2022/04/09 05:57:40;;;;;;;33.55;7.00;;;3.90;99.90;;;;;;5051064;28;20119;-78
2022/04/09 06:00:09;;;;;;;21.80;5.90;;;3.90;99.90;;;;;;5054913;28;20025;-77
2022/04/09 06:02:41;;;;;;;26.33;5.70;;;4.00;99.90;;;;;;5056029;28;20179;-78
2022/04/09 06:05:13;;;;;;;35.55;6.75;;;3.90;99.90;;;;;;5054461;28;20115;-77
2022/04/09 06:07:42;;;;;;;31.40;6.18;;;4.00;99.90;;;;;;5054482;28;20424;-78
2022/04/09 06:10:11;;;;;;;21.15;5.13;;;4.00;99.90;;;;;;5054621;28;20040;-77
2022/04/09 06:12:37;;;;;;;30.52;6.18;;;4.10;99.90;;;;;;5054739;28;20048;-78
2022/04/09 06:15:11;;;;;;;20.83;5.35;;;4.20;99.90;;;;;;5054407;28;20043;-78
2022/04/09 06:17:44;;;;;;;32.28;6.57;;;4.30;99.90;;;;;;5054563;28;20039;-76
2022/04/09 06:20:11;;;;;;;22.38;6.28;;;4.40;99.90;;;;;;5054409;28;20029;-77
2022/04/09 06:22:39;;;;;;;30.20;5.55;;;4.40;99.90;;;;;;5054102;28;20032;-77
2022/04/09 06:25:08;;;;;;;27.23;5.38;;;4.50;99.90;;;;;;5054149;28;20354;-78
2022/04/09 06:27:39;;;;;;;35.35;7.35;;;4.60;99.90;;;;;;5054174;28;20432;-81
2022/04/09 06:30:06;;;;;;;34.70;5.97;;;4.70;99.90;;;;;;5054323;28;20385;-81
2022/04/09 06:32:34;;;;;;;28.30;5.45;;;4.80;99.90;;;;;;5054483;28;20075;-80
2022/04/09 06:35:00;;;;;;;16.17;4.93;;;4.80;99.90;;;;;;5053849;28;20021;-78
2022/04/09 06:37:26;;;;;;;31.30;5.82;;;4.90;99.90;;;;;;5053906;28;20025;-80
2022/04/09 06:39:55;;;;;;;27.05;5.38;;;5.00;99.90;;;;;;5054045;28;20079;-80
2022/04/09 06:42:22;;;;;;;21.55;5.60;;;5.10;99.90;;;;;;5054081;28;20184;-79
2022/04/09 06:45:08;;;;;;;32.85;5.80;;;5.30;99.90;;;;;;5055558;28;20068;-81
2022/04/09 06:47:54;;;;;;;25.73;3.88;;;5.30;99.90;;;;;;5054974;28;20120;-80
2022/04/09 06:50:20;;;;;;;31.75;6.00;;;5.40;99.90;;;;;;5053966;28;20040;-79
2022/04/09 06:52:46;;;;;;;22.92;4.53;;;5.50;99.90;;;;;;5037108;28;20033;-79
2022/04/09 06:55:21;;;;;;;31.70;6.68;;;5.60;99.90;;;;;;5053692;28;20500;-75
2022/04/09 06:57:48;;;;;;;14.55;3.88;;;5.80;99.90;;;;;;5053661;28;20033;-79
2022/04/09 07:00:21;;;;;;;23.70;4.53;;;5.70;99.90;;;;;;5053666;28;20389;-80
2022/04/09 07:02:46;;;;;;;24.90;5.25;;;5.90;99.90;;;;;;5053470;28;20025;-80
2022/04/09 07:05:12;;;;;;;17.10;4.60;;;6.00;99.90;;;;;;5054458;28;20036;-81
2022/04/09 07:07:38;;;;;;;17.98;4.00;;;6.00;99.90;;;;;;5054495;28;20033;-79
2022/04/09 07:10:09;;;;;;;22.33;4.57;;;6.10;99.90;;;;;;5052905;28;20048;-80
2022/04/09 07:12:36;;;;;;;27.73;4.82;;;6.20;99.90;;;;;;5054802;28;20029;-80
2022/04/09 07:15:03;;;;;;;17.52;4.97;;;6.30;99.90;;;;;;5054636;28;20021;-76
2022/04/09 07:17:30;;;;;;;15.98;3.50;;;6.40;99.90;;;;;;5054564;28;20029;-74
2022/04/09 07:20:03;;;;;;;16.15;3.88;;;6.50;99.90;;;;;;5054519;28;20019;-72
2022/04/09 07:22:29;;;;;;;24.98;4.05;;;6.60;99.90;;;;;;5054570;28;20043;-80
2022/04/09 07:24:55;;;;;;;24.13;4.55;;;6.70;99.90;;;;;;5055076;28;20029;-80
2022/04/09 07:27:32;;;;;;;22.75;4.32;;;6.80;99.90;;;;;;5054961;28;20120;-80
2022/04/09 07:29:58;;;;;;;14.32;3.53;;;6.90;99.90;;;;;;5055572;28;20473;-80
2022/04/09 07:32:24;;;;;;;13.23;3.50;;;7.00;99.90;;;;;;5053288;28;20025;-79
2022/04/09 07:34:49;;;;;;;25.27;3.95;;;7.20;99.90;;;;;;5054050;28;20397;-79
2022/04/09 07:37:15;;;;;;;9.93;2.78;;;7.30;99.90;;;;;;5054505;28;20033;-80
2022/04/09 07:39:41;;;;;;;15.20;3.90;;;7.40;99.90;;;;;;5053218;28;20362;-79
2022/04/09 07:42:07;;;;;;;15.85;3.58;;;7.50;99.90;;;;;;5053972;28;20017;-80
2022/04/09 07:44:32;;;;;;;11.05;2.90;;;7.50;99.90;;;;;;5054114;28;20033;-80
2022/04/09 07:46:58;;;;;;;13.80;3.28;;;7.70;99.90;;;;;;5053992;28;20128;-78
2022/04/09 07:49:24;;;;;;;20.27;3.92;;;7.70;99.90;;;;;;5053868;28;20096;-79
2022/04/09 07:51:49;;;;;;;23.77;4.05;;;7.60;99.90;;;;;;5053731;28;20036;-80
2022/04/09 07:54:15;;;;;;;14.98;3.45;;;7.70;99.90;;;;;;5054013;28;20106;-79
2022/04/09 07:56:41;;;;;;;14.13;3.67;;;7.90;99.90;;;;;;5052495;28;20028;-77
2022/04/09 07:59:07;;;;;;;14.18;3.70;;;7.90;99.90;;;;;;5053994;28;20469;-80
2022/04/09 08:01:33;;;;;;;13.57;3.60;;;7.80;99.90;;;;;;5053619;28;20032;-80
2022/04/09 08:03:58;;;;;;;17.10;4.43;;;7.90;99.90;;;;;;5053360;28;20096;-80
2022/04/09 08:06:24;;;;;;;14.32;2.92;;;8.00;99.90;;;;;;5053640;28;20060;-79
2022/04/09 08:08:49;;;;;;;16.45;3.95;;;8.10;99.90;;;;;;5053675;28;20025;-80
2022/04/09 08:11:15;;;;;;;13.27;2.85;;;8.10;99.90;;;;;;5053727;28;20436;-80
2022/04/09 08:13:41;;;;;;;12.13;3.17;;;8.20;99.90;;;;;;5053643;28;20021;-80
2022/04/09 08:16:06;;;;;;;14.68;2.70;;;8.30;99.90;;;;;;5053482;28;20505;-80
2022/04/09 08:18:32;;;;;;;19.85;2.78;;;8.20;99.90;;;;;;5053573;28;20024;-79
2022/04/09 08:20:58;;;;;;;12.25;3.45;;;8.30;99.90;;;;;;5053095;28;20116;-80
2022/04/09 08:23:24;;;;;;;19.13;3.28;;;8.40;99.90;;;;;;5053016;28;20040;-79
2022/04/09 08:25:49;;;;;;;12.43;2.88;;;8.50;99.90;;;;;;5053139;28;20032;-79
2022/04/09 08:28:17;;;;;;;14.23;2.47;;;8.70;99.90;;;;;;5053505;28;20341;-79
2022/04/09 08:30:43;;;;;;;15.73;3.10;;;8.60;99.90;;;;;;5053148;28;20029;-80
2022/04/09 08:33:10;;;;;;;17.13;3.58;;;8.60;99.90;;;;;;5053307;28;20021;-79
2022/04/09 08:35:36;;;;;;;11.60;2.20;;;8.80;99.90;;;;;;5052929;28;20458;-79
2022/04/09 08:38:03;;;;;;;10.45;3.03;;;8.70;99.90;;;;;;5053139;28;20029;-80
2022/04/09 08:40:32;;;;;;;8.35;2.72;;;8.70;99.90;;;;;;5053259;28;20029;-80
2022/04/09 08:42:58;;;;;;;10.88;2.13;;;9.00;99.90;;;;;;5052975;28;20055;-80
2022/04/09 08:45:24;;;;;;;7.30;2.05;;;9.00;99.90;;;;;;5052907;28;20033;-80
2022/04/09 08:47:51;;;;;;;19.42;2.75;;;8.80;99.90;;;;;;5052568;28;20072;-78
2022/04/09 08:50:17;;;;;;;12.20;3.00;;;8.90;99.90;;;;;;5053178;28;20469;-80
2022/04/09 08:52:44;;;;;;;11.05;2.38;;;9.10;99.90;;;;;;5052867;28;20037;-76
2022/04/09 08:55:13;;;;;;;8.75;2.00;;;9.20;99.90;;;;;;5052996;28;20112;-78
2022/04/09 08:57:40;;;;;;;15.18;3.17;;;9.10;99.90;;;;;;5052614;28;20025;-80
2022/04/09 09:00:10;;;;;;;11.55;2.58;;;9.40;99.90;;;;;;5051861;28;20442;-78
2022/04/09 09:02:36;;;;;;;7.72;2.17;;;9.50;99.90;;;;;;5052531;28;20028;-81
2022/04/09 09:05:03;;;;;;;14.50;2.38;;;9.40;99.90;;;;;;5052673;28;20063;-75
2022/04/09 09:07:29;;;;;;;6.28;1.90;;;9.70;99.90;;;;;;5052847;28;20055;-78
2022/04/09 09:10:16;;;;;;;10.20;1.92;;;9.50;99.90;;;;;;5052884;28;20048;-80
2022/04/09 09:12:42;;;;;;;9.50;2.33;;;9.40;99.90;;;;;;5052530;28;20136;-80
2022/04/09 09:15:08;;;;;;;12.27;1.48;;;9.50;99.90;;;;;;5052600;28;20060;-79
2022/04/09 09:17:34;;;;;;;10.93;2.45;;;9.80;99.90;;;;;;5052465;28;20025;-80
2022/04/09 09:20:00;;;;;;;8.65;1.95;;;10.00;99.90;;;;;;5052650;28;20082;-80
2022/04/09 09:22:39;;;;;;;9.65;1.90;;;10.40;99.90;;;;;;5052706;28;20105;-79
2022/04/09 09:25:08;;;;;;;7.63;2.17;;;10.20;99.90;;;;;;5051232;28;20381;-80
2022/04/09 09:27:34;;;;;;;8.55;2.28;;;10.10;99.90;;;;;;5052568;28;20021;-79
2022/04/09 09:30:00;;;;;;;9.30;2.25;;;10.40;99.90;;;;;;5051470;28;20036;-81
2022/04/09 09:32:28;;;;;;;8.20;1.83;;;9.90;99.90;;;;;;5052499;28;20029;-78
2022/04/09 09:34:56;;;;;;;9.02;2.83;;;9.50;99.90;;;;;;5056631;28;20079;-80
2022/04/09 09:37:24;;;;;;;9.02;2.97;;;9.80;99.90;;;;;;5056418;28;20109;-80
2022/04/09 09:39:51;;;;;;;8.23;2.45;;;10.40;99.90;;;;;;5056468;28;20025;-81
2022/04/09 09:42:22;;;;;;;7.03;2.05;;;10.50;99.90;;;;;;5056467;28;20029;-78
2022/04/09 09:44:48;;;;;;;7.82;1.90;;;10.20;99.90;;;;;;5056130;28;20032;-81
2022/04/09 09:47:15;;;;;;;10.60;3.08;;;10.10;99.90;;;;;;5054956;28;20035;-80
2022/04/09 09:49:56;;;;;;;7.88;1.73;;;10.10;99.90;;;;;;5056122;28;20108;-80
2022/04/09 09:52:32;;;;;;;10.50;1.95;;;9.90;99.90;;;;;;5056265;28;20463;-82
2022/04/09 09:55:10;;;;;;;7.38;2.25;;;9.70;99.90;;;;;;5056006;28;20086;-80
2022/04/09 09:57:38;;;;;;;4.90;2.20;;;9.40;99.90;;;;;;5056247;28;20033;-80
2022/04/09 10:00:12;;;;;;;8.10;2.20;;;9.30;99.90;;;;;;5055888;28;20036;-80
2022/04/09 10:02:39;;;;;;;5.13;2.10;;;9.30;99.90;;;;;;5056007;28;20036;-79
2022/04/09 10:05:07;;;;;;;10.25;2.20;;;9.40;99.90;;;;;;5055904;28;20071;-80
2022/04/09 10:07:34;;;;;;;12.32;2.20;;;9.20;99.90;;;;;;5054670;28;20045;-80
2022/04/09 10:10:04;;;;;;;5.18;1.60;;;9.30;99.90;;;;;;5055767;28;20039;-79
2022/04/09 10:12:40;;;;;;;7.07;2.13;;;9.80;99.90;;;;;;5055879;28;20116;-80
2022/04/09 10:15:06;;;;;;;8.32;1.33;;;10.00;99.90;;;;;;5055627;28;20488;-80
2022/04/09 10:17:33;;;;;;;5.18;1.48;;;9.80;98.00;;;;;;5055788;28;20025;-80
2022/04/09 10:20:02;;;;;;;9.82;2.50;;;10.30;97.20;;;;;;5055873;28;20493;-81
2022/04/09 10:22:45;;;;;;;5.55;2.10;;;10.60;98.40;;;;;;5054438;28;20491;-80
2022/04/09 10:25:13;;;;;;;11.32;1.88;;;10.70;96.70;;;;;;5055334;28;20393;-81
2022/04/09 10:27:47;;;;;;;6.82;1.52;;;10.70;94.90;;;;;;5055764;28;20021;-80
2022/04/09 10:30:16;;;;;;;4.75;1.83;;;10.50;95.50;;;;;;5055189;28;20056;-80
2022/04/09 10:32:48;;;;;;;7.20;1.60;;;11.10;95.80;;;;;;5055822;28;20085;-80
2022/04/09 10:35:38;;;;;;;5.82;1.83;;;11.10;95.80;;;;;;5055431;28;20036;-80
2022/04/09 10:38:07;;;;;;;4.40;1.50;;;10.70;95.80;;;;;;5055525;28;20386;-81
2022/04/09 10:40:56;;;;;;;4.68;1.58;;;10.60;94.80;;;;;;5055041;28;20043;-80
2022/04/09 10:43:25;;;;;;;11.07;1.70;;;10.70;95.00;;;;;;5053563;28;20021;-80
2022/04/09 10:46:06;;;;;;;7.05;1.70;;;10.20;95.40;;;;;;5053945;28;20036;-81
2022/04/09 10:48:34;;;;;;;5.07;1.90;;;10.30;95.70;;;;;;5053876;28;20086;-79
2022/04/09 10:51:04;;;;;;;4.85;1.40;;;10.90;95.80;;;;;;5055028;28;20039;-80
2022/04/09 10:53:32;;;;;;;5.05;1.20;;;10.90;94.10;;;;;;5055101;28;20036;-80
2022/04/09 10:56:13;;;;;;;9.63;1.83;;;10.60;93.60;;;;;;5054872;28;20108;-81
2022/04/09 10:59:13;;;;;;;4.93;1.90;;;11.10;93.40;;;;;;5053501;28;20037;-80
2022/04/09 11:01:51;;;;;;;10.15;1.67;;;11.60;94.40;;;;;;5053674;28;20104;-80
2022/04/09 11:04:34;;;;;;;10.05;1.70;;;12.20;93.40;;;;;;5034918;28;20076;-79
2022/04/09 11:07:06;;;;;;;5.63;1.30;;;13.10;93.70;;;;;;5035409;28;20096;-81
2022/04/09 11:09:59;;;;;;;7.43;2.20;;;12.80;91.20;;;;;;5034635;28;20041;-80
2022/04/09 11:12:29;;;;;;;5.60;1.33;;;12.60;93.30;;;;;;5034656;28;20083;-80
2022/04/09 11:14:59;;;;;;;5.60;1.50;;;12.00;91.30;;;;;;5034515;28;20034;-81
2022/04/09 11:17:35;;;;;;;3.63;1.48;;;11.80;93.00;;;;;;5034899;28;20112;-81
2022/04/09 11:20:10;;;;;;;9.50;1.80;;;12.00;92.10;;;;;;5033438;28;20026;-81
2022/04/09 11:22:38;;;;;;;6.38;1.40;;;12.10;92.80;;;;;;5033519;28;20120;-81
2022/04/09 11:25:09;;;;;;;10.15;2.10;;;12.90;92.30;;;;;;5034272;28;20017;-81
2022/04/09 11:27:35;;;;;;;5.15;1.40;;;12.80;92.90;;;;;;5033185;28;20056;-80
2022/04/09 11:30:02;;;;;;;5.35;1.80;;;13.10;91.60;;;;;;5034520;28;20030;-80
2022/04/09 11:32:29;;;;;;;7.10;2.42;;;12.90;91.70;;;;;;5034546;28;20425;-80
2022/04/09 11:35:04;;;;;;;7.55;1.88;;;12.70;92.80;;;;;;5034391;28;20034;-79
2022/04/09 11:37:30;;;;;;;8.02;2.08;;;13.00;92.50;;;;;;5034364;28;20555;-82
2022/04/09 11:39:57;;;;;;;4.90;2.00;;;13.20;92.20;;;;;;5034387;28;20116;-81
2022/04/09 11:42:24;;;;;;;6.80;2.00;;;13.60;92.30;;;;;;5034009;28;20028;-81
2022/04/09 11:44:50;;;;;;;4.00;1.50;;;13.20;92.50;;;;;;5032886;28;20117;-81
2022/04/09 11:47:26;;;;;;;6.45;1.58;;;13.00;92.30;;;;;;5040012;28;20108;-82
2022/04/09 11:49:53;;;;;;;5.65;1.60;;;12.30;93.00;;;;;;5053944;28;20040;-81
2022/04/09 11:52:29;;;;;;;5.97;1.90;;;11.70;92.60;;;;;;5053967;28;20037;-83
2022/04/09 11:54:56;;;;;;;6.95;2.20;;;11.90;95.20;;;;;;5052700;28;20037;-82
2022/04/09 11:57:22;;;;;;;8.48;2.10;;;12.60;94.00;;;;;;5053422;28;20033;-81
2022/04/09 11:59:52;;;;;;;3.90;1.80;;;12.60;93.80;;;;;;5053750;28;20037;-81
2022/04/09 12:02:21;;;;;;;10.30;2.20;;;12.70;93.30;;;;;;5053438;28;20551;-81
2022/04/09 12:04:47;;;;;;;5.20;1.83;;;12.60;93.40;;;;;;5053812;28;20070;-80
2022/04/09 12:07:13;;;;;;;10.07;2.92;;;12.80;93.50;;;;;;5053697;28;20049;-81
2022/04/09 12:09:39;;;;;;;6.90;1.73;;;13.40;92.90;;;;;;5053559;28;20070;-81
2022/04/09 12:12:07;;;;;;;7.60;2.55;;;13.80;92.30;;;;;;5053506;28;20029;-81
2022/04/09 12:14:33;;;;;;;6.15;1.98;;;14.30;92.30;;;;;;5053368;28;20032;-81
2022/04/09 12:17:12;;;;;;;6.63;1.50;;;14.00;90.50;;;;;;5053384;28;20037;-81
2022/04/09 12:19:42;;;;;;;4.82;1.77;;;14.20;89.60;;;;;;5053399;28;20044;-82
2022/04/09 12:22:27;;;;;;;4.03;1.50;;;14.50;90.50;;;;;;5053328;28;20536;-82
2022/04/09 12:24:53;;;;;;;5.93;1.70;;;14.50;90.20;;;;;;5052992;28;20124;-81
2022/04/09 12:27:43;;;;;;;8.10;2.03;;;13.50;90.10;;;;;;5053204;28;20525;-81
2022/04/09 12:30:09;;;;;;;4.13;1.42;;;12.70;90.60;;;;;;5053314;28;20033;-82
2022/04/09 12:32:35;;;;;;;3.63;1.42;;;12.30;86.20;;;;;;5053082;28;20027;-75
2022/04/09 12:35:05;;;;;;;7.80;1.98;;;12.10;86.90;;;;;;5052981;28;20033;-80
2022/04/09 12:37:45;;;;;;;3.22;1.20;;;13.40;88.10;;;;;;5053088;28;20041;-81
2022/04/09 12:40:13;;;;;;;3.67;1.15;;;13.60;88.40;;;;;;5051629;28;20048;-80
2022/04/09 12:42:39;;;;;;;6.20;1.85;;;13.90;88.30;;;;;;5052772;28;20049;-77
2022/04/09 12:45:20;;;;;;;7.35;1.58;;;15.40;85.00;;;;;;5053068;28;20454;-80
2022/04/09 12:47:59;;;;;;;4.97;1.50;;;14.80;85.40;;;;;;5052887;28;20075;-80
2022/04/09 12:50:30;;;;;;;7.60;1.90;;;14.30;85.70;;;;;;5052999;28;20107;-80
2022/04/09 12:53:01;;;;;;;4.63;1.70;;;13.30;88.60;;;;;;5052953;28;20028;-80
2022/04/09 12:55:28;;;;;;;5.40;1.80;;;12.60;89.30;;;;;;5051218;28;20033;-80
2022/04/09 12:57:54;;;;;;;6.75;1.90;;;12.20;90.70;;;;;;5052787;28;20029;-78